createdAt,value
2018-05-25T00:00:48.745Z,17.86
2018-05-25T00:01:48.798Z,17.93
2018-05-25T00:02:48.796Z,17.86
2018-05-25T00:03:48.556Z,17.87
2018-05-25T00:04:48.866Z,17.87
2018-05-25T00:05:48.628Z,17.79
2018-05-25T00:06:48.887Z,17.86
2018-05-25T00:07:48.653Z,17.86
2018-05-25T00:08:48.665Z,17.81
2018-05-25T00:10:03.356Z,17.84
2018-05-25T00:11:03.629Z,17.86
2018-05-25T00:11:49.033Z,17.77
2018-05-25T00:13:49.048Z,17.81
2018-05-25T00:14:49.102Z,17.74
2018-05-25T00:16:03.483Z,17.78
2018-05-25T00:16:49.238Z,17.79
2018-05-25T00:17:49.162Z,17.77
2018-05-25T00:18:49.201Z,17.81
2018-05-25T00:19:49.225Z,17.82
2018-05-25T00:20:49.215Z,17.71
2018-05-25T00:21:49.268Z,17.82
2018-05-25T00:22:49.262Z,17.82
2018-05-25T00:23:49.045Z,17.89
2018-05-25T00:24:49.539Z,17.87
2018-05-25T00:25:49.364Z,17.9
2018-05-25T00:26:49.382Z,17.86
2018-05-25T00:27:49.403Z,17.87
2018-05-25T00:29:04.054Z,17.93
2018-05-25T00:29:49.503Z,17.92
2018-05-25T00:30:49.448Z,18.02
2018-05-25T00:32:04.145Z,17.97
2018-05-25T00:32:49.504Z,17.99
2018-05-25T00:33:49.524Z,17.97
2018-05-25T00:34:49.302Z,17.84
2018-05-25T00:35:49.591Z,17.87
2018-05-25T00:36:49.625Z,17.82
2018-05-25T00:37:49.626Z,17.9
2018-05-25T00:38:49.668Z,17.84
2018-05-25T00:39:49.669Z,17.82
2018-05-25T00:40:49.707Z,17.92
2018-05-25T00:41:49.449Z,17.84
2018-05-25T00:42:49.773Z,17.82
2018-05-25T00:43:49.505Z,17.82
2018-05-25T00:44:49.797Z,17.7
2018-05-25T00:45:49.844Z,17.77
2018-05-25T00:47:04.497Z,17.74
2018-05-25T00:48:04.240Z,17.7
2018-05-25T00:48:49.911Z,17.71
2018-05-25T00:49:49.898Z,17.62
2018-05-25T00:50:49.945Z,17.74
2018-05-25T00:51:49.945Z,17.75
2018-05-25T00:52:50.006Z,17.84
2018-05-25T00:53:50.027Z,17.74
2018-05-25T00:54:49.776Z,17.64
2018-05-25T00:55:50.042Z,17.64
2018-05-25T00:56:50.116Z,17.7
2018-05-25T00:57:50.095Z,17.7
2018-05-25T00:59:49.612Z,17.58
2018-05-25T01:00:50.200Z,17.56
2018-05-25T01:02:04.834Z,17.58
2018-05-25T01:02:50.243Z,17.58
2018-05-25T01:04:04.636Z,17.52
2018-05-25T01:04:50.260Z,17.56
2018-05-25T01:05:50.293Z,17.54
2018-05-25T01:06:50.308Z,17.55
2018-05-25T01:07:50.095Z,17.54
2018-05-25T01:08:50.350Z,17.48
2018-05-25T01:09:50.408Z,17.38
2018-05-25T01:10:50.412Z,17.44
2018-05-25T01:11:50.189Z,17.43
2018-05-25T01:12:50.184Z,17.4
2018-05-25T01:13:50.467Z,17.41
2018-05-25T01:14:50.563Z,17.38
2018-05-25T01:15:50.639Z,17.38
2018-05-25T01:17:50.565Z,17.23
2018-05-25T01:19:05.257Z,17.33
2018-05-25T01:19:50.613Z,17.28
2018-05-25T01:20:50.372Z,17.28
2018-05-25T01:21:50.685Z,17.3
2018-05-25T01:22:50.686Z,17.31
2018-05-25T01:23:50.724Z,17.25
2018-05-25T01:24:50.865Z,17.36
2018-05-25T01:25:50.750Z,17.26
2018-05-25T01:26:50.810Z,17.23
2018-05-25T01:27:50.552Z,17.18
2018-05-25T01:28:50.858Z,17.21
2018-05-25T01:29:50.845Z,17.19
2018-05-25T01:31:05.521Z,17.21
2018-05-25T01:31:50.659Z,17.21
2018-05-25T01:32:50.917Z,17.25
2018-05-25T01:33:50.977Z,17.18
2018-05-25T01:34:50.977Z,17.19
2018-05-25T01:35:51.023Z,17.12
2018-05-25T01:36:50.747Z,17
2018-05-25T01:37:51.038Z,17.03
2018-05-25T01:38:51.074Z,17.08
2018-05-25T01:39:51.115Z,17
2018-05-25T01:40:51.139Z,16.93
2018-05-25T01:41:51.132Z,17
2018-05-25T01:42:50.904Z,17.03
2018-05-25T01:43:51.178Z,16.97
2018-05-25T01:44:51.233Z,16.96
2018-05-25T01:45:50.966Z,16.94
2018-05-25T01:46:51.287Z,17.06
2018-05-25T01:48:05.920Z,17.03
2018-05-25T01:48:51.329Z,16.96
2018-05-25T01:49:51.316Z,16.97
2018-05-25T01:51:06.008Z,16.94
2018-05-25T01:51:51.371Z,16.94
2018-05-25T01:52:51.419Z,16.93
2018-05-25T01:53:51.409Z,16.82
2018-05-25T01:54:51.514Z,16.86
2018-05-25T01:55:51.463Z,16.82
2018-05-25T01:56:51.517Z,16.86
2018-05-25T01:57:51.518Z,16.75
2018-05-25T01:58:51.564Z,16.79
2018-05-25T01:59:51.292Z,16.78
2018-05-25T02:00:51.580Z,16.73
2018-05-25T02:01:51.612Z,16.64
2018-05-25T02:02:51.657Z,16.66
2018-05-25T02:03:51.411Z,16.67
2018-05-25T02:05:06.316Z,16.66
2018-05-25T02:06:06.359Z,16.6
2018-05-25T02:07:06.362Z,16.56
2018-05-25T02:07:51.738Z,16.56
2018-05-25T02:08:51.522Z,16.57
2018-05-25T02:10:06.177Z,16.57
2018-05-25T02:10:51.849Z,16.57
2018-05-25T02:11:51.829Z,16.53
2018-05-25T02:12:51.623Z,16.46
2018-05-25T02:13:51.874Z,16.53
2018-05-25T02:14:51.908Z,16.46
2018-05-25T02:15:51.939Z,16.49
2018-05-25T02:16:51.981Z,16.52
2018-05-25T02:17:51.980Z,16.45
2018-05-25T02:18:52.029Z,16.45
2018-05-25T02:19:51.756Z,16.42
2018-05-25T02:20:52.076Z,16.43
2018-05-25T02:21:51.810Z,16.3
2018-05-25T02:23:06.756Z,16.39
2018-05-25T02:23:52.108Z,16.43
2018-05-25T02:24:52.133Z,16.39
2018-05-25T02:25:52.193Z,16.41
2018-05-25T02:27:51.969Z,16.41
2018-05-25T02:28:52.226Z,16.38
2018-05-25T02:29:52.284Z,16.39
2018-05-25T02:30:52.275Z,16.34
2018-05-25T02:32:06.971Z,16.28
2018-05-25T02:32:52.329Z,16.31
2018-05-25T02:33:52.363Z,16.3
2018-05-25T02:34:52.381Z,16.28
2018-05-25T02:36:52.465Z,16.25
2018-05-25T02:37:52.483Z,16.3
2018-05-25T02:39:07.122Z,16.28
2018-05-25T02:39:52.514Z,16.28
2018-05-25T02:40:52.517Z,16.3
2018-05-25T02:41:52.533Z,16.23
2018-05-25T02:42:52.582Z,16.28
2018-05-25T02:43:52.588Z,16.09
2018-05-25T02:44:52.389Z,16.11
2018-05-25T02:45:52.390Z,16.11
2018-05-25T02:46:52.653Z,16.2
2018-05-25T02:47:52.703Z,16.12
2018-05-25T02:48:52.455Z,16.11
2018-05-25T02:49:52.817Z,16.12
2018-05-25T02:51:52.501Z,16.08
2018-05-25T02:53:07.465Z,16.07
2018-05-25T02:54:07.458Z,16.09
2018-05-25T02:54:52.600Z,16.15
2018-05-25T02:55:52.912Z,16.12
2018-05-25T02:57:07.272Z,16.11
2018-05-25T02:57:52.938Z,16.01
2018-05-25T02:58:52.944Z,16
2018-05-25T02:59:52.976Z,16.04
2018-05-25T03:00:52.983Z,15.96
2018-05-25T03:02:53.052Z,15.97
2018-05-25T03:03:53.054Z,16.01
2018-05-25T03:04:53.090Z,16.01
2018-05-25T03:06:07.741Z,15.97
2018-05-25T03:06:53.142Z,16.01
2018-05-25T03:08:07.782Z,16.04
2018-05-25T03:09:07.812Z,15.96
2018-05-25T03:09:52.961Z,15.93
2018-05-25T03:10:53.204Z,16.01
2018-05-25T03:11:53.258Z,15.97
2018-05-25T03:13:07.635Z,16.01
2018-05-25T03:13:53.320Z,16
2018-05-25T03:14:53.302Z,16.02
2018-05-25T03:15:53.331Z,16
2018-05-25T03:16:53.445Z,16.04
2018-05-25T03:17:53.398Z,16.04
2018-05-25T03:18:53.390Z,16.04
2018-05-25T03:20:08.082Z,16
2018-05-25T03:20:53.182Z,16.04
2018-05-25T03:21:53.489Z,16.05
2018-05-25T03:22:53.481Z,16.09
2018-05-25T03:23:53.514Z,16.08
2018-05-25T03:25:08.286Z,16.08
2018-05-25T03:26:08.362Z,16.08
2018-05-25T03:26:53.270Z,16.15
2018-05-25T03:27:53.625Z,16.24
2018-05-25T03:28:53.686Z,16.21
2018-05-25T03:29:53.642Z,16.23
2018-05-25T03:31:53.723Z,16.23
2018-05-25T03:32:53.715Z,16.24
2018-05-25T03:33:53.764Z,16.24
2018-05-25T03:34:53.785Z,16.25
2018-05-25T03:35:53.798Z,16.2
2018-05-25T03:36:53.905Z,16.27
2018-05-25T03:38:08.473Z,16.24
2018-05-25T03:38:53.621Z,16.27
2018-05-25T03:41:08.560Z,16.35
2018-05-25T03:42:08.568Z,16.33
2018-05-25T03:42:53.978Z,16.34
2018-05-25T03:43:54.071Z,16.35
2018-05-25T03:44:54.024Z,16.52
2018-05-25T03:45:54.009Z,16.41
2018-05-25T03:46:54.115Z,16.42
2018-05-25T03:47:54.059Z,16.34
2018-05-25T03:49:08.736Z,16.52
2018-05-25T03:49:54.120Z,16.38
2018-05-25T03:50:54.164Z,16.39
2018-05-25T03:51:54.179Z,16.39
2018-05-25T03:52:54.178Z,16.41
2018-05-25T03:53:54.219Z,16.48
2018-05-25T03:54:54.223Z,16.41
2018-05-25T03:56:08.908Z,16.48
2018-05-25T03:56:54.273Z,16.5
2018-05-25T03:58:08.957Z,16.46
2018-05-25T03:58:54.076Z,16.5
2018-05-25T03:59:54.344Z,16.45
2018-05-25T04:00:54.111Z,16.56
2018-05-25T04:02:54.169Z,16.5
2018-05-25T04:03:54.167Z,16.58
2018-05-25T04:04:54.486Z,16.66
2018-05-25T04:06:54.241Z,16.64
2018-05-25T04:09:09.197Z,16.79
2018-05-25T04:09:54.634Z,16.86
2018-05-25T04:10:54.621Z,17.07
2018-05-25T04:11:54.616Z,17.04
2018-05-25T04:12:54.653Z,17.19
2018-05-25T04:14:09.325Z,17.21
2018-05-25T04:14:54.704Z,17.23
2018-05-25T04:16:54.749Z,17.22
2018-05-25T04:17:54.787Z,17.15
2018-05-25T04:18:54.783Z,17.22
2018-05-25T04:19:54.593Z,17.14
2018-05-25T04:20:54.843Z,17.06
2018-05-25T04:21:54.882Z,17.07
2018-05-25T04:22:54.640Z,17.14
2018-05-25T04:23:54.901Z,17.28
2018-05-25T04:24:54.961Z,17.3
2018-05-25T04:25:55.000Z,17.41
2018-05-25T04:27:09.639Z,17.37
2018-05-25T04:27:55.044Z,17.34
2018-05-25T04:29:09.684Z,17.36
2018-05-25T04:29:55.079Z,17.43
2018-05-25T04:30:55.069Z,17.36
2018-05-25T04:31:54.841Z,17.48
2018-05-25T04:32:55.114Z,17.41
2018-05-25T04:33:55.169Z,17.49
2018-05-25T04:34:55.264Z,17.75
2018-05-25T04:35:54.930Z,18.33
2018-05-25T04:36:55.080Z,18.73
2018-05-25T04:37:54.970Z,19.18
2018-05-25T04:38:55.287Z,19.78
2018-05-25T04:39:55.315Z,20.41
2018-05-25T04:40:55.317Z,20.94
2018-05-25T04:41:55.342Z,21.75
2018-05-25T04:42:55.361Z,22.12
2018-05-25T04:43:55.414Z,22.21
2018-05-25T04:44:55.416Z,22.94
2018-05-25T04:45:55.462Z,23.31
2018-05-25T04:46:55.209Z,23.31
2018-05-25T04:47:55.244Z,23.54
2018-05-25T04:48:55.524Z,23.8
2018-05-25T04:49:55.541Z,24.32
2018-05-25T04:50:55.597Z,24.64
2018-05-25T04:51:55.608Z,25.09
2018-05-25T04:52:55.651Z,25.25
2018-05-25T04:53:55.387Z,25.45
2018-05-25T04:54:55.675Z,25.42
2018-05-25T04:56:10.460Z,25.7
2018-05-25T04:56:55.731Z,25.6
2018-05-25T04:57:55.794Z,25.62
2018-05-25T04:58:56.012Z,26.06
2018-05-25T04:59:55.588Z,26.17
2018-05-25T05:01:10.500Z,26.52
2018-05-25T05:01:55.913Z,26.89
2018-05-25T05:02:55.654Z,26.89
2018-05-25T05:03:55.956Z,27.67
2018-05-25T05:04:56.169Z,27.22
2018-05-25T05:05:56.001Z,27.72
2018-05-25T05:06:56.038Z,27.82
2018-05-25T05:07:56.095Z,27.9
2018-05-25T05:09:56.162Z,28.21
2018-05-25T05:10:56.159Z,28.68
2018-05-25T05:12:56.219Z,29.18
2018-05-25T05:13:55.995Z,28.54
2018-05-25T05:14:56.447Z,28.8
2018-05-25T05:15:56.342Z,28.67
2018-05-25T05:17:11.019Z,28.83
2018-05-25T05:17:56.391Z,29.08
2018-05-25T05:18:55.912Z,29.55
2018-05-25T05:19:56.445Z,29.87
2018-05-25T05:20:56.483Z,30.31
2018-05-25T05:21:56.587Z,30.47
2018-05-25T05:22:56.618Z,30.38
2018-05-25T05:23:56.614Z,30.54
2018-05-25T05:24:56.611Z,30.64
2018-05-25T05:25:56.673Z,30.61
2018-05-25T05:26:56.683Z,30.65
2018-05-25T05:27:56.202Z,30.43
2018-05-25T05:28:56.516Z,30.43
2018-05-25T05:29:56.812Z,30.39
2018-05-25T05:30:56.818Z,30.45
2018-05-25T05:32:11.514Z,30.84
2018-05-25T05:33:11.533Z,31.09
2018-05-25T05:33:56.951Z,31.23
2018-05-25T05:34:56.971Z,31.04
2018-05-25T05:35:57.020Z,31.09
2018-05-25T05:36:57.031Z,30.97
2018-05-25T05:37:57.053Z,30.45
2018-05-25T05:38:56.850Z,30.08
2018-05-25T05:39:57.143Z,30.31
2018-05-25T05:41:57.196Z,30.43
2018-05-25T05:42:57.261Z,31.07
2018-05-25T05:43:57.264Z,30.84
2018-05-25T05:46:57.390Z,30.79
2018-05-25T05:48:12.072Z,30.72
2018-05-25T05:49:12.107Z,30.92
2018-05-25T05:49:57.477Z,31.46
2018-05-25T05:50:57.645Z,31.84
2018-05-25T05:51:57.582Z,32.3
2018-05-25T05:52:57.608Z,32.32
2018-05-25T05:53:57.622Z,32.7
2018-05-25T05:54:57.686Z,32.67
2018-05-25T05:55:57.696Z,32.7
2018-05-25T05:57:57.754Z,33.18
2018-05-25T05:58:57.823Z,33.34
2018-05-25T05:59:57.567Z,33.45
2018-05-25T06:00:57.626Z,33.42
2018-05-25T06:02:12.549Z,32.81
2018-05-25T06:02:57.942Z,32.69
2018-05-25T06:04:12.648Z,33.04
2018-05-25T06:04:58.032Z,33.23
2018-05-25T06:05:58.077Z,33.31
2018-05-25T06:06:58.079Z,32.97
2018-05-25T06:07:58.152Z,32.99
2018-05-25T06:08:57.889Z,32.72
2018-05-25T06:09:57.942Z,32.81
2018-05-25T06:10:58.276Z,32.3
2018-05-25T06:11:58.293Z,31.7
2018-05-25T06:13:58.362Z,31.29
2018-05-25T06:14:58.373Z,31.46
2018-05-25T06:15:58.447Z,31.7
2018-05-25T06:16:58.443Z,31.89
2018-05-25T06:18:13.152Z,32.14
2018-05-25T06:18:58.522Z,32.04
2018-05-25T06:19:58.684Z,31.09
2018-05-25T06:20:58.608Z,31.12
2018-05-25T06:21:58.390Z,31.57
2018-05-25T06:22:58.694Z,32.01
2018-05-25T06:23:58.702Z,32.52
2018-05-25T06:24:58.750Z,32.4
2018-05-25T06:25:58.808Z,32.59
2018-05-25T06:26:58.815Z,32.65
2018-05-25T06:27:58.878Z,32.18
2018-05-25T06:28:58.879Z,32.19
2018-05-25T06:29:58.684Z,32.66
2018-05-25T06:32:13.666Z,31.86
2018-05-25T06:32:59.061Z,31.66
2018-05-25T06:33:58.814Z,31.65
2018-05-25T06:34:59.237Z,32.25
2018-05-25T06:36:13.792Z,32.57
2018-05-25T06:36:59.213Z,32.75
2018-05-25T06:37:58.950Z,33.26
2018-05-25T06:38:59.287Z,33.63
2018-05-25T06:40:59.346Z,33.87
2018-05-25T06:41:59.374Z,34.1
2018-05-25T06:42:59.410Z,34.24
2018-05-25T06:43:59.476Z,34.06
2018-05-25T06:44:59.482Z,33.68
2018-05-25T06:45:59.563Z,33.34
2018-05-25T06:46:59.283Z,33.45
2018-05-25T06:47:59.349Z,33.5
2018-05-25T06:48:59.625Z,33.66
2018-05-25T06:49:59.425Z,33.42
2018-05-25T06:50:59.696Z,33.45
2018-05-25T06:52:14.407Z,33.54
2018-05-25T06:52:59.786Z,33.59
2018-05-25T06:53:59.847Z,33.65
2018-05-25T06:54:59.848Z,33.65
2018-05-25T06:55:59.925Z,34.03
2018-05-25T06:56:59.690Z,34.05
2018-05-25T06:58:00.180Z,34.19
2018-05-25T06:58:59.994Z,34.27
2018-05-25T07:00:00.032Z,34.7
2018-05-25T07:01:00.107Z,34.4
2018-05-25T07:03:00.179Z,34.97
2018-05-25T07:04:00.020Z,34.87
2018-05-25T07:04:59.987Z,35.1
2018-05-25T07:06:14.911Z,35.41
2018-05-25T07:07:00.035Z,35.92
2018-05-25T07:08:15.009Z,35.99
2018-05-25T07:09:00.376Z,35.6
2018-05-25T07:10:00.447Z,35.62
2018-05-25T07:11:00.464Z,35.26
2018-05-25T07:12:00.526Z,34.92
2018-05-25T07:13:00.529Z,34.72
2018-05-25T07:14:00.572Z,34.77
2018-05-25T07:15:00.367Z,35.11
2018-05-25T07:16:15.318Z,34.49
2018-05-25T07:17:15.083Z,34.03
2018-05-25T07:18:00.718Z,33.54
2018-05-25T07:19:00.789Z,33.49
2018-05-25T07:20:00.805Z,33.56
2018-05-25T07:21:00.846Z,33.23
2018-05-25T07:22:15.542Z,32.87
2018-05-25T07:23:00.920Z,33.37
2018-05-25T07:24:15.335Z,33.82
2018-05-25T07:25:01.015Z,33.91
2018-05-25T07:26:01.022Z,33.15
2018-05-25T07:27:01.093Z,33.66
2018-05-25T07:28:00.860Z,33.82
2018-05-25T07:29:00.625Z,34.08
2018-05-25T07:30:01.177Z,34.7
2018-05-25T07:31:01.215Z,35.02
2018-05-25T07:32:01.277Z,34.99
2018-05-25T07:34:16.003Z,35.28
2018-05-25T07:35:01.115Z,35.1
2018-05-25T07:36:01.177Z,35.36
2018-05-25T07:37:00.928Z,34.96
2018-05-25T07:38:16.131Z,35.45
2018-05-25T07:40:01.564Z,35.11
2018-05-25T07:41:01.630Z,35.06
2018-05-25T07:42:01.647Z,35.15
2018-05-25T07:43:01.702Z,35.07
2018-05-25T07:44:01.707Z,35.34
2018-05-25T07:45:01.490Z,34.89
2018-05-25T07:46:01.807Z,35.31
2018-05-25T07:47:01.591Z,35.52
2018-05-25T07:48:01.597Z,35.56
2018-05-25T07:49:01.680Z,35.65
2018-05-25T07:50:01.961Z,35.16
2018-05-25T07:51:01.743Z,34.19
2018-05-25T07:52:16.677Z,33.66
2018-05-25T07:53:02.099Z,33.93
2018-05-25T07:54:16.786Z,34.7
2018-05-25T07:55:01.882Z,35.03
2018-05-25T07:56:02.187Z,35.47
2018-05-25T07:57:01.974Z,35.28
2018-05-25T07:58:02.012Z,35.56
2018-05-25T07:59:02.279Z,34.88
2018-05-25T08:00:02.084Z,34.7
2018-05-25T08:01:01.838Z,33.82
2018-05-25T08:02:01.880Z,33.09
2018-05-25T08:03:01.932Z,33.59
2018-05-25T08:04:02.469Z,33.71
2018-05-25T08:05:17.166Z,34.72
2018-05-25T08:06:02.046Z,34.78
2018-05-25T08:07:02.582Z,34.82
2018-05-25T08:08:02.659Z,34.05
2018-05-25T08:09:02.687Z,34.32
2018-05-25T08:10:02.733Z,34.94
2018-05-25T08:11:17.390Z,34.8
2018-05-25T08:12:03.032Z,34.82
2018-05-25T08:13:02.841Z,35.07
2018-05-25T08:14:02.597Z,35.06
2018-05-25T08:15:02.903Z,35.03
2018-05-25T08:16:02.690Z,35.36
2018-05-25T08:17:02.962Z,35.52
2018-05-25T08:18:03.045Z,35.14
2018-05-25T08:19:03.049Z,34.37
2018-05-25T08:20:03.108Z,34.58
2018-05-25T08:21:02.847Z,34.53
2018-05-25T08:22:03.442Z,34.59
2018-05-25T08:24:17.885Z,33.42
2018-05-25T08:25:03.295Z,34.08
2018-05-25T08:26:03.296Z,34.31
2018-05-25T08:27:18.008Z,34.54
2018-05-25T08:28:03.372Z,34.21
2018-05-25T08:29:03.414Z,33.56
2018-05-25T08:30:03.206Z,33.44
2018-05-25T08:31:03.509Z,34.05
2018-05-25T08:32:03.022Z,34.1
2018-05-25T08:33:03.033Z,34.02
2018-05-25T08:34:03.636Z,34.27
2018-05-25T08:35:03.632Z,33.59
2018-05-25T08:36:03.705Z,34.02
2018-05-25T08:37:03.455Z,34.35
2018-05-25T08:38:03.780Z,33.59
2018-05-25T08:39:03.536Z,33.42
2018-05-25T08:40:03.591Z,33.68
2018-05-25T08:41:18.506Z,33.59
2018-05-25T08:42:04.030Z,33.26
2018-05-25T08:43:18.661Z,33.29
2018-05-25T08:44:18.634Z,32.77
2018-05-25T08:45:03.739Z,32.75
2018-05-25T08:46:04.095Z,32.85
2018-05-25T08:47:03.811Z,33.04
2018-05-25T08:48:04.143Z,33.18
2018-05-25T08:49:04.176Z,33.42
2018-05-25T08:50:04.252Z,32.84
2018-05-25T08:51:03.957Z,33.11
2018-05-25T08:52:03.995Z,33.66
2018-05-25T08:53:04.053Z,33.94
2018-05-25T08:54:04.089Z,33.93
2018-05-25T08:55:04.432Z,34.44
2018-05-25T08:56:04.403Z,34.92
2018-05-25T08:57:04.201Z,34.92
2018-05-25T08:58:04.473Z,35.5
2018-05-25T08:59:19.180Z,35.4
2018-05-25T09:00:04.017Z,35.58
2018-05-25T09:03:04.664Z,35.22
2018-05-25T09:05:04.722Z,35.44
2018-05-25T09:06:04.500Z,35.26
2018-05-25T09:07:04.555Z,34.77
2018-05-25T09:08:04.865Z,34.5
2018-05-25T09:10:04.943Z,33.63
2018-05-25T09:11:04.950Z,33.66
2018-05-25T09:12:04.738Z,33.37
2018-05-25T09:13:05.043Z,33.87
2018-05-25T09:14:19.443Z,34.09
2018-05-25T09:15:05.104Z,34.3
2018-05-25T09:16:05.119Z,34.54
2018-05-25T09:17:05.188Z,34.53
2018-05-25T09:18:04.930Z,34.31
2018-05-25T09:20:05.285Z,34.77
2018-05-25T09:21:04.792Z,34.62
2018-05-25T09:22:05.328Z,33.97
2018-05-25T09:23:05.364Z,33.97
2018-05-25T09:24:05.442Z,33.21
2018-05-25T09:25:05.547Z,32.79
2018-05-25T09:26:05.507Z,33.22
2018-05-25T09:27:05.257Z,33.38
2018-05-25T09:28:05.579Z,33.78
2018-05-25T09:29:20.228Z,33.86
2018-05-25T09:30:05.626Z,33.53
2018-05-25T09:31:20.332Z,34.05
2018-05-25T09:32:05.719Z,34.08
2018-05-25T09:33:05.751Z,33.59
2018-05-25T09:34:05.503Z,33.78
2018-05-25T09:35:05.866Z,34.1
2018-05-25T09:36:05.833Z,34.03
2018-05-25T09:37:05.905Z,34.24
2018-05-25T09:38:05.629Z,34.3
2018-05-25T09:39:05.691Z,34.81
2018-05-25T09:40:05.696Z,35.25
2018-05-25T09:41:05.765Z,35.33
2018-05-25T09:42:06.092Z,35
2018-05-25T09:43:06.101Z,34.96
2018-05-25T09:44:05.860Z,34.92
2018-05-25T09:45:06.153Z,34.02
2018-05-25T09:46:20.823Z,34.46
2018-05-25T09:48:06.277Z,35.25
2018-05-25T09:49:06.271Z,35.44
2018-05-25T09:50:06.070Z,35.06
2018-05-25T09:51:06.370Z,35.15
2018-05-25T09:52:06.374Z,35.23
2018-05-25T09:53:06.451Z,35.31
2018-05-25T09:54:05.938Z,35.28
2018-05-25T09:55:05.968Z,34.82
2018-05-25T09:56:06.356Z,34.94
2018-05-25T09:57:06.290Z,33.44
2018-05-25T09:58:06.621Z,32.33
2018-05-25T09:59:06.382Z,31.26
2018-05-25T10:00:06.737Z,31.04
2018-05-25T10:01:06.450Z,31.34
2018-05-25T10:02:21.388Z,31.76
2018-05-25T10:03:06.848Z,31.63
2018-05-25T10:04:06.817Z,32.06
2018-05-25T10:05:06.582Z,32.4
2018-05-25T10:06:06.335Z,33.01
2018-05-25T10:07:06.623Z,33.82
2018-05-25T10:08:06.948Z,33.6
2018-05-25T10:10:06.766Z,34.03
2018-05-25T10:11:07.045Z,33.86
2018-05-25T10:12:21.455Z,33.32
2018-05-25T10:13:07.091Z,33.37
2018-05-25T10:14:06.855Z,33.09
2018-05-25T10:15:07.198Z,33.49
2018-05-25T10:16:07.252Z,33.78
2018-05-25T10:18:21.650Z,34.66
2018-05-25T10:19:07.308Z,35.04
2018-05-25T10:21:21.741Z,34.32
2018-05-25T10:22:07.145Z,34.34
2018-05-25T10:23:07.420Z,34.44
2018-05-25T10:24:07.500Z,34.34
2018-05-25T10:25:07.270Z,33.98
2018-05-25T10:26:07.539Z,33.45
2018-05-25T10:27:07.571Z,33.01
2018-05-25T10:28:22.241Z,32.69
2018-05-25T10:30:07.667Z,32.08
2018-05-25T10:31:07.461Z,31.51
2018-05-25T10:32:07.460Z,31.28
2018-05-25T10:33:07.780Z,30.6
2018-05-25T10:34:22.442Z,30.08
2018-05-25T10:35:08.060Z,30.01
2018-05-25T10:36:07.849Z,30.34
2018-05-25T10:37:07.929Z,30.67
2018-05-25T10:38:07.662Z,30.7
2018-05-25T10:39:07.988Z,30.77
2018-05-25T10:40:07.718Z,30.97
2018-05-25T10:41:07.961Z,31.36
2018-05-25T10:42:08.077Z,31.46
2018-05-25T10:43:07.831Z,31.63
2018-05-25T10:44:07.865Z,31.47
2018-05-25T10:45:08.166Z,31.26
2018-05-25T10:46:08.221Z,31.01
2018-05-25T10:47:08.218Z,30.69
2018-05-25T10:48:07.988Z,30.43
2018-05-25T10:49:22.906Z,30.13
2018-05-25T10:50:08.046Z,30.19
2018-05-25T10:51:08.322Z,29.83
2018-05-25T10:52:08.085Z,29.85
2018-05-25T10:53:08.127Z,29.67
2018-05-25T10:54:08.436Z,29.61
2018-05-25T10:55:08.214Z,29.42
2018-05-25T10:56:08.212Z,29.7
2018-05-25T10:57:08.413Z,30.16
2018-05-25T10:58:08.563Z,30.58
2018-05-25T10:59:08.565Z,30.84
2018-05-25T11:00:08.643Z,30.91
2018-05-25T11:01:08.644Z,30.97
2018-05-25T11:02:08.676Z,30.97
2018-05-25T11:03:08.690Z,30.79
2018-05-25T11:04:08.495Z,30.53
2018-05-25T11:05:08.522Z,30.23
2018-05-25T11:06:08.810Z,30.11
2018-05-25T11:07:08.819Z,30.02
2018-05-25T11:08:08.591Z,30.08
2018-05-25T11:11:08.988Z,29.19
2018-05-25T11:12:23.654Z,29.52
2018-05-25T11:13:09.026Z,29.73
2018-05-25T11:14:08.781Z,29.76
2018-05-25T11:15:09.088Z,29.42
2018-05-25T11:16:08.878Z,28.71
2018-05-25T11:17:08.615Z,28.76
2018-05-25T11:18:09.203Z,28.85
2018-05-25T11:19:08.931Z,28.61
2018-05-25T11:20:08.993Z,28.8
2018-05-25T11:21:23.913Z,29.21
2018-05-25T11:22:09.288Z,29.33
2018-05-25T11:23:09.069Z,29.28
2018-05-25T11:24:09.120Z,29.51
2018-05-25T11:25:09.387Z,29.43
2018-05-25T11:26:09.174Z,29.46
2018-05-25T11:27:09.606Z,29.57
2018-05-25T11:28:09.502Z,29.58
2018-05-25T11:29:09.498Z,29.78
2018-05-25T11:30:09.565Z,29.52
2018-05-25T11:31:09.313Z,29.36
2018-05-25T11:32:09.624Z,29.18
2018-05-25T11:33:09.118Z,29.26
2018-05-25T11:34:09.162Z,29.43
2018-05-25T11:35:09.441Z,29.3
2018-05-25T11:36:09.757Z,29.36
2018-05-25T11:37:24.411Z,29.67
2018-05-25T11:38:09.785Z,29.74
2018-05-25T11:39:09.575Z,29.64
2018-05-25T11:40:09.961Z,29.86
2018-05-25T11:41:09.897Z,30.04
2018-05-25T11:42:09.639Z,30.07
2018-05-25T11:43:09.696Z,30.1
2018-05-25T11:44:09.703Z,30.01
2018-05-25T11:45:09.752Z,29.89
2018-05-25T11:46:10.034Z,29.74
2018-05-25T11:47:10.080Z,30.1
2018-05-25T11:48:09.853Z,29.87
2018-05-25T11:49:09.863Z,29.79
2018-05-25T11:50:10.151Z,29.45
2018-05-25T11:51:10.232Z,29.46
2018-05-25T11:52:09.958Z,29.49
2018-05-25T11:53:24.917Z,29.16
2018-05-25T11:54:10.264Z,28.83
2018-05-25T11:55:10.310Z,28.92
2018-05-25T11:56:10.152Z,28.7
2018-05-25T11:57:10.373Z,28.61
2018-05-25T11:58:10.417Z,28.85
2018-05-25T11:59:10.426Z,29.12
2018-05-25T12:00:10.481Z,29.24
2018-05-25T12:01:09.957Z,29.43
2018-05-25T12:02:10.266Z,29.48
2018-05-25T12:03:24.945Z,29.3
2018-05-25T12:04:10.596Z,29.23
2018-05-25T12:05:25.290Z,28.96
2018-05-25T12:06:10.738Z,28.89
2018-05-25T12:07:10.424Z,28.83
2018-05-25T12:08:10.426Z,28.85
2018-05-25T12:10:25.165Z,29.55
2018-05-25T12:11:10.778Z,29.83
2018-05-25T12:12:10.842Z,30.27
2018-05-25T12:13:10.850Z,30.82
2018-05-25T12:14:10.900Z,30.7
2018-05-25T12:15:10.894Z,30.1
2018-05-25T12:16:10.675Z,29.89
2018-05-25T12:17:10.990Z,29.86
2018-05-25T12:18:11.009Z,29.55
2018-05-25T12:19:11.019Z,29.33
2018-05-25T12:20:11.081Z,29.14
2018-05-25T12:21:11.081Z,29
2018-05-25T12:22:10.877Z,28.8
2018-05-25T12:23:11.152Z,28.52
2018-05-25T12:24:25.854Z,28.33
2018-05-25T12:25:11.212Z,28.3
2018-05-25T12:26:10.969Z,28.15
2018-05-25T12:27:11.286Z,28.07
2018-05-25T12:28:11.556Z,28
2018-05-25T12:29:11.353Z,27.99
2018-05-25T12:30:11.352Z,28.14
2018-05-25T12:32:11.418Z,28.7
2018-05-25T12:33:11.447Z,28.9
2018-05-25T12:34:11.304Z,28.77
2018-05-25T12:35:11.270Z,28.54
2018-05-25T12:36:11.559Z,28.52
2018-05-25T12:37:11.298Z,28.7
2018-05-25T12:38:11.617Z,28.86
2018-05-25T12:40:11.412Z,29.19
2018-05-25T12:41:11.687Z,29.31
2018-05-25T12:42:11.743Z,29.45
2018-05-25T12:43:11.772Z,29.27
2018-05-25T12:44:11.774Z,29.31
2018-05-25T12:45:11.811Z,29.45
2018-05-25T12:46:11.860Z,29.21
2018-05-25T12:47:11.338Z,29.12
2018-05-25T12:48:11.916Z,29.36
2018-05-25T12:49:11.670Z,29.6
2018-05-25T12:50:26.608Z,29.52
2018-05-25T12:52:11.751Z,29.83
2018-05-25T12:53:12.064Z,30
2018-05-25T12:54:12.077Z,29.83
2018-05-25T12:55:12.123Z,29.83
2018-05-25T12:56:26.526Z,29.6
2018-05-25T12:57:12.153Z,29.55
2018-05-25T12:58:12.213Z,29.67
2018-05-25T13:00:11.750Z,29.57
2018-05-25T13:01:12.293Z,29.51
2018-05-25T13:02:12.334Z,29.11
2018-05-25T13:03:12.079Z,28.98
2018-05-25T13:04:27.023Z,29.02
2018-05-25T13:05:12.155Z,29.02
2018-05-25T13:06:12.180Z,29.02
2018-05-25T13:08:12.479Z,29.15
2018-05-25T13:09:12.550Z,29.21
2018-05-25T13:10:12.539Z,28.98
2018-05-25T13:11:12.585Z,29.04
2018-05-25T13:12:27.260Z,28.98
2018-05-25T13:13:12.658Z,28.93
2018-05-25T13:14:12.656Z,29.14
2018-05-25T13:15:12.719Z,29.15
2018-05-25T13:16:12.739Z,29.02
2018-05-25T13:17:12.785Z,28.96
2018-05-25T13:18:12.787Z,28.83
2018-05-25T13:19:12.836Z,28.68
2018-05-25T13:20:12.836Z,28.56
2018-05-25T13:21:12.868Z,28.68
2018-05-25T13:22:27.567Z,28.7
2018-05-25T13:23:12.931Z,28.78
2018-05-25T13:24:12.984Z,29
2018-05-25T13:25:13.060Z,28.95
2018-05-25T13:26:13.076Z,28.9
2018-05-25T13:27:13.038Z,28.77
2018-05-25T13:28:27.485Z,28.25
2018-05-25T13:30:13.156Z,27.9
2018-05-25T13:31:13.315Z,27.85
2018-05-25T13:32:12.956Z,27.97
2018-05-25T13:33:13.215Z,28.02
2018-05-25T13:34:13.012Z,28.27
2018-05-25T13:36:13.058Z,28.52
2018-05-25T13:37:13.098Z,28.56
2018-05-25T13:38:13.369Z,28.56
2018-05-25T13:40:13.419Z,28.58
2018-05-25T13:41:13.214Z,28.51
2018-05-25T13:42:13.225Z,28.09
2018-05-25T13:44:28.201Z,28.15
2018-05-25T13:45:13.598Z,28.29